createdAt,value
2023-03-08T00:00:13.740Z,99971.38
2023-03-08T00:03:19.096Z,99973.91
2023-03-08T00:06:25.451Z,99976.06
2023-03-08T00:09:30.945Z,99982.72
2023-03-08T00:12:36.444Z,99984.03
2023-03-08T00:15:41.687Z,99990.59
2023-03-08T00:18:47.606Z,99991.75
2023-03-08T00:21:53.133Z,99989.25
2023-03-08T00:24:58.287Z,99985.66
2023-03-08T00:28:04.019Z,99981.50
2023-03-08T00:31:13.137Z,99967.91
2023-03-08T00:34:18.806Z,99946.44
2023-03-08T00:37:24.320Z,99952.44
2023-03-08T00:40:29.741Z,99953.88
2023-03-08T00:43:35.760Z,99963.50
2023-03-08T00:46:44.102Z,99968.72
2023-03-08T00:49:52.627Z,99967.94
2023-03-08T00:52:59.557Z,99967.88
2023-03-08T00:56:05.065Z,99964.41
2023-03-08T00:59:10.672Z,99958.53
2023-03-08T01:02:18.123Z,99960.59
2023-03-08T01:05:23.945Z,99953.22
2023-03-08T01:08:29.581Z,99960.81
2023-03-08T01:11:36.988Z,99966.25
2023-03-08T01:14:42.874Z,99967.19
2023-03-08T01:17:48.686Z,99960.25
2023-03-08T01:21:06.879Z,99961.88
2023-03-08T01:24:12.206Z,99961.88
2023-03-08T01:27:17.746Z,99966.38
2023-03-08T01:30:23.172Z,99969.25
2023-03-08T01:33:28.921Z,99974.00
2023-03-08T01:36:34.670Z,99964.41
2023-03-08T01:39:40.013Z,99959.91
2023-03-08T01:42:45.695Z,99956.31
2023-03-08T01:46:25.387Z,99953.09
2023-03-08T01:49:36.129Z,99956.28
2023-03-08T01:52:48.949Z,99956.50
2023-03-08T01:55:56.072Z,99960.09
2023-03-08T01:59:02.444Z,99958.97
2023-03-08T02:02:08.249Z,99956.41
2023-03-08T02:05:14.291Z,99964.00
2023-03-08T02:08:22.106Z,99967.00
2023-03-08T02:11:28.347Z,99971.31
2023-03-08T02:14:36.454Z,99966.59
2023-03-08T02:17:43.976Z,99977.09
2023-03-08T02:20:49.740Z,99973.50
2023-03-08T02:23:56.051Z,99966.59
2023-03-08T02:27:06.802Z,99964.09
2023-03-08T02:30:16.009Z,99960.22
2023-03-08T02:33:22.742Z,99961.44
2023-03-08T02:36:28.286Z,99961.94
2023-03-08T02:39:33.656Z,99974.84
2023-03-08T02:42:38.921Z,99964.28
2023-03-08T02:45:44.785Z,99950.03
2023-03-08T02:48:53.078Z,99949.31
2023-03-08T02:51:59.992Z,99936.91
2023-03-08T02:55:06.455Z,99941.41
2023-03-08T02:58:11.927Z,99946.63
2023-03-08T03:01:17.410Z,99940.03
2023-03-08T03:04:23.018Z,99944.97
2023-03-08T03:07:28.646Z,99952.69
2023-03-08T03:13:42.909Z,99955.88
2023-03-08T03:16:51.295Z,99973.28
2023-03-08T03:19:57.103Z,99974.47
2023-03-08T03:23:02.858Z,99978.16
2023-03-08T03:26:22.821Z,99974.22
2023-03-08T03:29:31.534Z,99982.09
2023-03-08T03:32:48.246Z,99995.31
2023-03-08T03:35:58.878Z,99983.84
2023-03-08T03:39:04.683Z,99993.63
2023-03-08T03:42:12.994Z,99997.41
2023-03-08T03:45:25.472Z,99995.25
2023-03-08T03:48:32.670Z,99996.22
2023-03-08T03:51:38.090Z,99998.22
2023-03-08T03:55:07.728Z,99995.34
2023-03-08T03:58:12.940Z,99989.16
2023-03-08T04:01:27.728Z,99987.47
2023-03-08T04:04:38.647Z,100002.81
2023-03-08T04:07:44.564Z,99997.53
2023-03-08T04:10:49.847Z,100003.34
2023-03-08T04:13:55.659Z,100006.56
2023-03-08T04:17:03.333Z,100007.06
2023-03-08T04:20:16.401Z,100020.59
2023-03-08T04:23:30.652Z,100027.00
2023-03-08T04:26:36.609Z,100037.97
2023-03-08T04:29:41.958Z,100041.00
2023-03-08T04:32:48.334Z,100033.97
2023-03-08T04:35:54.779Z,100029.50
2023-03-08T04:39:03.598Z,100042.84
2023-03-08T04:42:10.441Z,100053.56
2023-03-08T04:45:16.008Z,100059.63
2023-03-08T04:48:21.210Z,100052.94
2023-03-08T04:51:27.467Z,100048.03
2023-03-08T04:54:36.042Z,100054.69
2023-03-08T04:57:47.230Z,100056.59
2023-03-08T05:00:52.887Z,100048.66
2023-03-08T05:03:58.502Z,100066.00
2023-03-08T05:07:12.369Z,100060.00
2023-03-08T05:10:18.570Z,100058.00
2023-03-08T05:13:25.525Z,100049.25
2023-03-08T05:16:31.285Z,100049.34
2023-03-08T05:19:36.743Z,100043.53
2023-03-08T05:22:57.232Z,100053.41
2023-03-08T05:26:14.034Z,100059.94
2023-03-08T05:29:19.617Z,100050.81
2023-03-08T05:32:25.521Z,100045.03
2023-03-08T05:35:31.168Z,100050.13
2023-03-08T05:38:36.938Z,100050.69
2023-03-08T05:41:46.340Z,100055.72
2023-03-08T05:44:57.414Z,100051.56
2023-03-08T05:48:07.794Z,100042.69
2023-03-08T05:51:17.352Z,100046.69
2023-03-08T05:54:23.511Z,100046.81
2023-03-08T05:57:32.489Z,100045.59
2023-03-08T06:00:38.376Z,100050.00
2023-03-08T06:03:46.130Z,100058.31
2023-03-08T06:06:52.586Z,100061.34
2023-03-08T06:10:01.928Z,100075.16
2023-03-08T06:13:07.701Z,100080.28
2023-03-08T06:16:14.647Z,100069.97
2023-03-08T06:19:21.266Z,100065.81
2023-03-08T06:22:31.165Z,100065.78
2023-03-08T06:25:38.881Z,100071.69
2023-03-08T06:28:45.385Z,100079.38
2023-03-08T06:31:52.325Z,100083.66
2023-03-08T06:35:00.115Z,100098.06
2023-03-08T06:38:07.606Z,100102.22
2023-03-08T06:41:17.646Z,100112.69
2023-03-08T06:44:25.968Z,100113.38
2023-03-08T06:47:32.124Z,100119.13
2023-03-08T06:50:38.183Z,100122.94
2023-03-08T06:53:43.772Z,100130.53
2023-03-08T06:56:49.834Z,100141.78
2023-03-08T06:59:55.208Z,100152.09
2023-03-08T07:03:00.590Z,100160.66
2023-03-08T07:06:10.324Z,100163.47
2023-03-08T07:09:15.556Z,100170.53
2023-03-08T12:29:51.165Z,100191.72
2023-03-08T12:32:59.381Z,100197.06
2023-03-08T12:36:07.558Z,100196.53
2023-03-08T12:39:35.036Z,100196.44
2023-03-08T12:42:41.916Z,100201.50
2023-03-08T12:46:10.506Z,100197.53
2023-03-08T12:49:29.552Z,100182.19
2023-03-08T12:52:35.504Z,100184.31
2023-03-08T12:55:41.770Z,100179.19
2023-03-08T12:59:00.679Z,100163.38
2023-03-08T13:02:21.206Z,100161.06
2023-03-08T13:05:31.908Z,100151.22
2023-03-08T13:08:49.321Z,100146.06
2023-03-08T13:12:19.224Z,100133.31
2023-03-08T13:15:26.224Z,100134.88
2023-03-08T13:18:31.639Z,100128.34
2023-03-08T13:21:46.489Z,100122.53
2023-03-08T13:25:01.741Z,100121.06
2023-03-08T13:28:15.857Z,100124.34
2023-03-08T13:31:26.796Z,100121.25
2023-03-08T13:34:35.531Z,100117.03
2023-03-08T13:37:40.437Z,100109.09
2023-03-08T13:40:52.565Z,100109.34
2023-03-08T13:44:06.633Z,100098.78
2023-03-08T13:47:33.373Z,100103.84
2023-03-08T13:50:44.483Z,100098.88
2023-03-08T13:53:49.972Z,100103.31
2023-03-08T13:57:05.783Z,100102.25
2023-03-08T14:00:22.673Z,100097.94
2023-03-08T14:03:31.543Z,100095.72
2023-03-08T14:06:38.865Z,100098.16
2023-03-08T14:09:44.135Z,100108.13
2023-03-08T14:12:49.550Z,100107.53
2023-03-08T14:15:59.065Z,100106.53
2023-03-08T14:19:19.650Z,100103.38
2023-03-08T14:22:38.767Z,100099.56
2023-03-08T14:25:59.870Z,100098.22
2023-03-08T14:29:22.211Z,100112.53
2023-03-08T14:32:32.760Z,100112.84
2023-03-08T14:35:41.707Z,100119.53
2023-03-08T14:38:49.350Z,100119.50
2023-03-08T14:41:56.505Z,100132.94
2023-03-08T14:45:18.586Z,100134.06
2023-03-08T14:48:35.902Z,100145.59
2023-03-08T14:51:43.184Z,100138.38
2023-03-08T14:54:48.185Z,100150.50
2023-03-08T14:57:58.132Z,100150.22
2023-03-08T15:01:03.763Z,100152.66
2023-03-08T15:04:22.072Z,100152.94
2023-03-08T15:07:33.555Z,100146.28
2023-03-08T15:10:40.692Z,100147.94
2023-03-08T15:13:46.620Z,100151.69
2023-03-08T15:16:53.555Z,100151.47
2023-03-08T15:19:58.600Z,100137.81
2023-03-08T15:23:07.557Z,100120.91
2023-03-08T15:26:21.236Z,100109.66
2023-03-08T15:29:31.311Z,100107.25
2023-03-08T15:32:36.434Z,100106.44
2023-03-08T15:35:42.145Z,100111.56
2023-03-08T15:38:47.481Z,100110.75
2023-03-08T15:41:53.571Z,100117.19
2023-03-08T15:44:59.270Z,100126.59
2023-03-08T15:48:07.465Z,100121.22
2023-03-08T15:51:20.980Z,100117.47
2023-03-08T15:54:26.496Z,100114.56
2023-03-08T15:57:32.672Z,100094.44
2023-03-08T16:00:38.290Z,100083.72
2023-03-08T16:03:43.505Z,100076.22
2023-03-08T16:06:49.273Z,100096.88
2023-03-08T16:09:54.577Z,100112.16
2023-03-08T16:13:00.044Z,100105.69
2023-03-08T16:16:06.428Z,100094.69
2023-03-08T16:19:11.966Z,100105.66
2023-03-08T16:22:17.504Z,100118.28
2023-03-08T16:25:23.599Z,100115.88
2023-03-08T16:28:29.311Z,100122.03
2023-03-08T16:31:36.076Z,100106.25
2023-03-08T16:34:41.513Z,100098.22
2023-03-08T16:37:46.889Z,100110.56
2023-03-08T16:41:02.886Z,100102.28
2023-03-08T16:44:29.348Z,100106.03
2023-03-08T16:47:34.450Z,100118.34
2023-03-08T16:50:39.780Z,100112.97
2023-03-08T16:53:45.113Z,100105.25
2023-03-08T16:56:51.016Z,100106.03
2023-03-08T16:59:56.475Z,100108.19
2023-03-08T17:03:01.478Z,100111.13
2023-03-08T17:06:11.963Z,100108.72
2023-03-08T17:09:17.751Z,100114.09
2023-03-08T17:12:22.881Z,100098.56
2023-03-08T17:15:28.120Z,100088.91
2023-03-08T17:18:33.543Z,100087.03
2023-03-08T17:21:39.141Z,100089.97
2023-03-08T17:24:44.711Z,100100.44
2023-03-08T17:27:51.488Z,100089.19
2023-03-08T17:30:57.409Z,100086.75
2023-03-08T17:34:03.172Z,100093.19
2023-03-08T17:37:12.509Z,100080.34
2023-03-08T17:40:19.802Z,100094.81
2023-03-08T17:43:25.447Z,100116.47
2023-03-08T17:46:31.022Z,100124.78
2023-03-08T17:49:36.604Z,100120.47
2023-03-08T17:52:42.572Z,100127.19
2023-03-08T17:55:47.756Z,100140.81
2023-03-08T17:58:53.381Z,100139.75
2023-03-08T18:01:59.000Z,100144.28
2023-03-08T18:05:06.436Z,100127.41
2023-03-08T18:08:11.960Z,100138.59
2023-03-08T18:11:17.745Z,100141.53
2023-03-08T18:14:34.282Z,100155.47
2023-03-08T18:17:43.644Z,100168.84
2023-03-08T18:20:49.135Z,100155.72
2023-03-08T18:23:55.014Z,100162.69
2023-03-08T18:27:00.502Z,100154.41
2023-03-08T18:30:06.621Z,100152.25
2023-03-08T18:33:11.828Z,100158.13
2023-03-08T18:36:18.806Z,100164.81
2023-03-08T18:39:25.363Z,100161.06
2023-03-08T18:42:31.097Z,100162.13
2023-03-08T18:45:36.664Z,100163.50
2023-03-08T18:48:42.702Z,100154.09
2023-03-08T18:51:48.296Z,100166.66
2023-03-08T18:54:54.506Z,100163.97
2023-03-08T18:57:59.859Z,100166.94
2023-03-08T19:01:11.952Z,100169.06
2023-03-08T19:04:18.332Z,100172.81
2023-03-08T19:07:23.754Z,100177.09
2023-03-08T19:10:29.243Z,100179.25
2023-03-08T19:13:34.403Z,100170.69
2023-03-08T19:16:40.756Z,100170.16
2023-03-08T19:19:46.336Z,100167.19
2023-03-08T19:22:53.141Z,100155.94
2023-03-08T19:26:17.046Z,100153.31
2023-03-08T19:29:25.312Z,100154.94
2023-03-08T19:32:30.865Z,100159.22
2023-03-08T19:35:36.389Z,100147.16
2023-03-08T19:38:41.975Z,100152.22
2023-03-08T19:41:52.322Z,100157.84
2023-03-08T19:44:57.932Z,100153.56
2023-03-08T19:48:03.752Z,100150.31
2023-03-08T19:51:11.320Z,100147.63
2023-03-08T19:54:16.893Z,100141.97
2023-03-08T19:57:22.434Z,100142.75
2023-03-08T20:00:29.001Z,100147.81
2023-03-08T20:03:34.993Z,100146.50
2023-03-08T20:06:46.350Z,100140.63
2023-03-08T20:09:55.664Z,100155.41
2023-03-08T20:13:01.617Z,100155.94
2023-03-08T20:16:07.591Z,100165.47
2023-03-08T20:19:13.295Z,100161.19
2023-03-08T20:22:18.858Z,100160.47
2023-03-08T20:25:24.500Z,100161.47
2023-03-08T20:28:30.682Z,100167.13
2023-03-08T20:31:36.056Z,100166.63
2023-03-08T20:34:41.853Z,100164.75
2023-03-08T20:37:48.747Z,100167.44
2023-03-08T20:41:06.495Z,100163.66
2023-03-08T20:44:12.397Z,100177.22
2023-03-08T20:47:17.937Z,100177.00
2023-03-08T20:50:26.748Z,100171.97
2023-03-08T20:53:33.648Z,100174.91
2023-03-08T20:56:39.192Z,100172.75
2023-03-08T20:59:44.914Z,100177.81
2023-03-08T21:02:50.625Z,100182.59
2023-03-08T21:05:55.960Z,100177.22
2023-03-08T21:09:02.028Z,100171.97
2023-03-08T21:12:08.211Z,100167.94
2023-03-08T21:15:13.926Z,100163.66
2023-03-08T21:18:19.248Z,100153.50
2023-03-08T21:21:37.164Z,100158.28
2023-03-08T21:24:42.527Z,100152.69
2023-03-08T21:27:48.067Z,100144.09
2023-03-08T21:30:53.840Z,100142.75
2023-03-08T21:34:02.362Z,100139.56
2023-03-08T21:37:08.157Z,100138.53
2023-03-08T21:40:14.146Z,100124.31
2023-03-08T21:43:19.596Z,100137.13
2023-03-08T21:46:26.107Z,100137.94
2023-03-08T21:49:32.264Z,100131.50
2023-03-08T21:52:37.538Z,100133.13
2023-03-08T21:55:42.764Z,100133.13
2023-03-08T21:58:48.312Z,100129.38
2023-03-08T22:01:58.534Z,100120.81
2023-03-08T22:05:04.310Z,100116.56
2023-03-08T22:08:09.880Z,100117.06
2023-03-08T22:11:15.542Z,100115.19
2023-03-08T22:14:21.295Z,100114.94
2023-03-08T22:17:26.870Z,100114.94
2023-03-08T22:20:32.894Z,100124.03
2023-03-08T22:23:38.404Z,100113.34
2023-03-08T22:26:44.224Z,100111.72
2023-03-08T22:29:50.222Z,100109.06
2023-03-08T22:32:55.551Z,100103.66
2023-03-08T22:36:05.990Z,100105.00
2023-03-08T22:39:13.316Z,100104.72
2023-03-08T22:42:18.446Z,100098.06
2023-03-08T22:45:23.911Z,100094.25
2023-03-08T22:48:29.174Z,100102.25
2023-03-08T22:51:36.746Z,100091.03
2023-03-08T22:54:41.908Z,100089.13
2023-03-08T22:57:48.501Z,100100.34
2023-03-08T23:00:53.956Z,100088.59
2023-03-08T23:04:01.686Z,100088.03
2023-03-08T23:07:07.961Z,100089.09
2023-03-08T23:10:15.880Z,100088.28
2023-03-08T23:13:33.117Z,100094.44
2023-03-08T23:16:43.128Z,100088.59
2023-03-08T23:19:50.477Z,100087.53
2023-03-08T23:22:55.431Z,100085.91
2023-03-08T23:26:04.440Z,100086.97
2023-03-08T23:29:10.095Z,100093.38
2023-03-08T23:32:15.377Z,100075.44
2023-03-08T23:35:20.654Z,100088.81
2023-03-08T23:38:26.239Z,100084.53
2023-03-08T23:41:32.855Z,100085.59
2023-03-08T23:44:38.995Z,100075.94
2023-03-08T23:47:44.557Z,100082.91
2023-03-08T23:50:50.047Z,100089.56
2023-03-08T23:54:00.006Z,100082.38
2023-03-08T23:57:05.641Z,100083.44
